Caledonia, ND (58219)

3:03 PM CST on February 01, 2015 (GMT -0600)
Crookston Municipal-Kirkwood | Change Station
CLOSE
Current Station
Airport
Location: Crookston,
Elevation: 899 ft
Nearby Weather Stations

Elev 899 ft 47.84 °N, 96.62 °W | Updated 29 minutes ago

Clear
Clear
0 °F
Feels Like -17 °F
N
10
Wind Variable Wind from North

Today
High -- | Low -- °F
--% Chance of Precip.
Yesterday
High -- | Low -- °F
Precip. -- in
7:54 AM 5:29 PM
Waxing Gibbous, 96% visible
Pressure 30.48 in
Visibility 10.0 miles
Clouds Clear
Windchill -17 °F
Dew Point -11 °F
Humidity 60%
Rainfall 0.00 in
Snow Depth Not available.
UV 2 out of 12
Pollen .10 out of 12
Air Quality Not available.
Flu Activity Not available.
METAR KCKN 012034Z AUTO 35009KT 10SM CLR M18/M24 A3048 RMK AO2

More Conditions Fewer Conditions

Pressure 30.48 in
Visibility 10.0 miles
Clouds Clear
Windchill -17 °F
Dew Point -11 °F
Humidity 60%
Rainfall 0.00 in
Snow Depth Not available.
UV 2 out of 12
Pollen .10 out of 12
Air Quality Not available.
Flu Activity Not available.
METAR KCKN 012034Z AUTO 35009KT 10SM CLR M18/M24 A3048 RMK AO2

More Conditions Fewer Conditions

10-Day Weather Forecast

Almanac

Astronomy

Feb. 01, 2015 Rise Set
Actual Time
Civil Twilight
Nautical Twilight
Astronomical Twilight
Moon
Length of Visible Light
Length of Day
Tomorrow will be .
, % of the Moon is Illuminated

Today's Extremes

State Highs State Lows

Community

WunderPhotos

Upload Photos

1,792,529 photos uploaded!

WunderBlogs® & News

Nearby

Air Quality

  Air Quality AQ Index Pollutant
Not available.

Snow Depth

Station Depth Elevation

Earthquake Activity

City Distance Mag. Time & Date
Minimum magnitude displayed is 2.5.

Coastal Water Temperatures

Place Temperature

Nearby Weather Stations